Aérodrome :
LOGIN :

S'inscrire | Disclaimer

   EN    FR    IT 

 










Légende :    VFR   VFR Marginal   IFR   IFR Intensif   IFR Très Intensif
Visi : 
Plafond : 
>= 8 km
>= 3000ft
5 à 8 km
1000 à 3000 ft
1500m à 5 km
500 à 1000 ft
800 à 1500m
200 à 500 ft
< 800m
< 200 ft
Symboles :   Orages  Brouillard  Fortes neiges  Fortes précipitations  Vent > 20 kt
SIGMETs :   Divers  Orages  Givrage  Turbulence  Onde Orograph.  Cendres Volcan.







- Altitude de l'aérodrome : 29 ft


LIRM - Grazzanise Caserta

DERNIER METAR :
  • 200955Z 06005KT 6000 FEW035 11/05 Q1025 RMK FEW VIS MIN 6000 WIND THR06 03005KT WHT

METARs EXPIRÉS :
  • 200855Z 06005KT 5000 BR BKN035 08/04 Q1025
  • 200755Z 04003KT 5000 BR BKN035 07/04 Q1025

TAF COR TAF LIRM
Valide du 20 à 09h jusqu'au 20 à 18h UTC


200800Z 2009/2018 05005KT 5000 BR BKN035
BECMG 2010/2011 7000
Pas de NOTAMs connus pour ce terrain.
1 SIGMET publié pour la FIR Roma (LIRR) :
 
Cendres volcaniques
LIRR SIGMET 1 VALID 200558/201200 LIIB
LIRR ROMA FIR VA ERUPTION MT ETNA PSN N3744 E01500 VA CLD OBS AT 0600Z WI N3655 E01510 - N3700 E01440 - N3755 E01445 - N3749 E01510 - N3655 E01510 MOV S 05KT SFC/FL160 NC FCST AT 1200Z WI N3655 E01445 - N3749 E01449 - N3749 E01515 - N3700 E01519 - N3655 E01445=



MET'MAP, la Météo Aéronautique d'un coup d'oeil ! - Copyright ORBIFLY Décembre 2007 - Disclaimer

ORBIFLY MET'MAP TEAM :

Programmation & Développement : Alexandra Zaïnal
Conception & Développement : Baudouin d'Aumeries
Co-Programmation & Développement : Marc-Olivier Méhu
Soutien technique & logistique : Manuel Goepfert

Contact : metmap@orbifly.com




SOURCES & CREDITS :

   NOAA